Time;durP1;ratioP1;P1;durP2;ratioP2;P2;SDS_P1;SDS_P2;PMS_P1;PMS_P2;Temp;Humidity;BMP_temperature;BMP_pressure;BME280_temperature;BME280_humidity;BME280_pressure;Samples;Min_cycle;Max_cycle;Signal;HPM_P1;HPM_P2
2022/10/13 00:00:49;;;;;;;21.27;13.43;;;12.40;99.90;;;;;;5034543;28;36351;-81
2022/10/13 00:03:17;;;;;;;19.88;14.25;;;12.40;99.90;;;;;;4999697;28;37860;-80
2022/10/13 00:05:45;;;;;;;24.55;13.57;;;12.50;99.90;;;;;;5004285;28;39153;-80
2022/10/13 00:08:13;;;;;;;19.55;13.57;;;12.40;99.90;;;;;;5008277;28;38257;-80
2022/10/13 00:10:40;;;;;;;26.17;14.35;;;12.40;99.90;;;;;;5028254;28;37494;-80
2022/10/13 00:13:07;;;;;;;19.90;14.07;;;12.50;99.90;;;;;;5017214;28;39168;-80
2022/10/13 00:15:41;;;;;;;22.88;13.00;;;12.50;99.90;;;;;;5017095;28;38918;-80
2022/10/13 00:18:07;;;;;;;26.27;14.80;;;12.50;99.90;;;;;;5016578;28;36861;-80
2022/10/13 00:20:39;;;;;;;23.05;14.07;;;12.50;99.90;;;;;;5021708;28;37703;-80
2022/10/13 00:23:07;;;;;;;20.37;13.57;;;12.50;99.90;;;;;;5007282;28;39028;-80
2022/10/13 00:25:33;;;;;;;21.52;14.38;;;12.50;99.90;;;;;;4997582;28;37016;-80
2022/10/13 00:27:59;;;;;;;22.58;13.63;;;12.50;99.90;;;;;;5014299;28;38691;-80
2022/10/13 00:30:25;;;;;;;23.27;13.57;;;12.50;99.90;;;;;;5010953;28;36565;-80
2022/10/13 00:32:51;;;;;;;22.33;13.82;;;12.50;99.90;;;;;;4986197;28;38930;-81
2022/10/13 00:35:18;;;;;;;16.73;12.65;;;12.50;99.90;;;;;;4983565;28;37140;-79
2022/10/13 00:37:44;;;;;;;23.63;14.77;;;12.50;99.90;;;;;;4989077;28;39849;-81
2022/10/13 00:40:11;;;;;;;19.55;13.35;;;12.50;99.90;;;;;;5016490;28;37666;-80
2022/10/13 00:42:40;;;;;;;24.52;14.32;;;12.50;99.90;;;;;;4990370;28;37406;-80
2022/10/13 00:45:25;;;;;;;20.90;13.80;;;12.50;99.90;;;;;;5005137;28;38631;-80
2022/10/13 00:47:59;;;;;;;23.10;13.15;;;12.50;99.90;;;;;;4987866;28;37238;-80
2022/10/13 00:50:32;;;;;;;20.17;13.40;;;12.60;99.90;;;;;;4988183;28;37321;-80
2022/10/13 00:53:00;;;;;;;26.65;13.75;;;12.60;99.90;;;;;;4974722;28;38771;-82
2022/10/13 00:55:30;;;;;;;23.48;14.63;;;12.60;99.90;;;;;;4984107;28;37602;-80
2022/10/13 00:58:00;;;;;;;22.27;13.55;;;12.60;99.90;;;;;;5003341;28;40468;-79
2022/10/13 01:03:02;;;;;;;28.40;13.88;;;12.70;99.90;;;;;;5318262;23;20063;-81
2022/10/13 01:05:40;;;;;;;24.20;12.93;;;12.70;99.90;;;;;;5015799;28;48182;-81
2022/10/13 01:08:08;;;;;;;24.85;13.10;;;12.70;99.90;;;;;;5017222;28;38341;-82
2022/10/13 01:11:07;;;;;;;23.02;12.60;;;12.70;99.90;;;;;;5014983;28;37399;-82
2022/10/13 01:13:40;;;;;;;19.55;13.30;;;12.80;99.90;;;;;;5041137;28;48784;-82
2022/10/13 01:16:26;;;;;;;20.55;12.55;;;12.80;99.90;;;;;;5006603;28;37980;-82
2022/10/13 01:19:23;;;;;;;16.48;12.57;;;12.70;99.90;;;;;;5001984;28;36947;-82
2022/10/13 01:22:29;;;;;;;23.38;14.10;;;12.70;99.90;;;;;;5028991;28;49296;-82
2022/10/13 01:25:38;;;;;;;21.13;13.73;;;12.80;99.90;;;;;;5015751;28;47957;-82
2022/10/13 01:28:34;;;;;;;25.92;14.88;;;12.80;99.90;;;;;;5012658;28;48559;-82
2022/10/13 01:31:20;;;;;;;22.73;13.82;;;12.80;99.90;;;;;;5031569;28;38014;-82
2022/10/13 01:33:54;;;;;;;26.60;14.23;;;12.70;99.90;;;;;;4983647;28;49505;-82
2022/10/13 01:36:49;;;;;;;21.02;13.75;;;12.80;99.90;;;;;;5005695;28;38873;-82
2022/10/13 01:47:45;;;;;;;27.77;14.40;;;12.80;99.90;;;;;;5706229;23;20523;31
2022/10/13 01:50:24;;;;;;;29.42;16.90;;;12.80;99.90;;;;;;4939302;28;37856;-81
2022/10/13 02:37:34;;;;;;;25.45;17.63;;;12.60;99.90;;;;;;5219024;23;20032;-81
2022/10/13 02:51:10;;;;;;;27.40;18.35;;;12.60;99.90;;;;;;6133382;23;19920;31
2022/10/13 03:14:38;;;;;;;28.67;19.67;;;12.40;99.90;;;;;;6134144;23;20022;31
2022/10/13 04:08:29;;;;;;;35.28;20.58;;;12.40;99.90;;;;;;5934216;23;20045;-81
2022/10/13 04:31:59;;;;;;;35.58;19.40;;;12.50;99.90;;;;;;5792721;23;20183;-82
2022/10/13 04:49:09;;;;;;;46.53;23.48;;;12.60;99.90;;;;;;5608866;23;20039;-80
2022/10/13 04:58:10;;;;;;;47.92;21.98;;;12.70;99.90;;;;;;5006929;23;20053;-82
2022/10/13 05:01:15;;;;;;;34.22;18.63;;;12.70;99.90;;;;;;5211711;23;49293;-81
2022/10/13 05:09:06;;;;;;;32.80;18.10;;;12.80;99.90;;;;;;6037249;23;20013;-83
2022/10/13 05:25:50;;;;;;;33.65;19.02;;;12.80;99.90;;;;;;5576497;22;38728;-81
2022/10/13 05:31:47;;;;;;;37.33;19.08;;;12.80;99.90;;;;;;6067415;23;20263;31
2022/10/13 05:35:01;;;;;;;26.38;16.60;;;12.80;99.90;;;;;;4934753;28;36454;-82
2022/10/13 05:47:54;;;;;;;28.90;18.83;;;12.80;99.90;;;;;;5589148;23;20059;-82
2022/10/13 05:50:20;;;;;;;36.85;20.42;;;12.80;99.90;;;;;;5006197;28;38901;-81
2022/10/13 05:52:46;;;;;;;33.55;20.90;;;12.80;99.90;;;;;;4998265;28;37070;-80
2022/10/13 05:55:16;;;;;;;47.17;25.10;;;12.80;99.90;;;;;;4993458;28;38040;-81
2022/10/13 05:57:46;;;;;;;49.80;26.30;;;12.80;99.90;;;;;;5008629;28;36045;-81
2022/10/13 06:00:18;;;;;;;57.95;26.33;;;12.80;99.90;;;;;;5006089;28;37652;-81
2022/10/13 06:03:10;;;;;;;36.60;23.80;;;12.80;99.90;;;;;;5009350;28;48104;-81
2022/10/13 06:05:37;;;;;;;34.22;23.73;;;12.80;99.90;;;;;;5013716;28;49114;-81
2022/10/13 06:08:03;;;;;;;52.78;30.80;;;12.80;99.90;;;;;;5007918;28;36558;-80
2022/10/13 06:10:30;;;;;;;50.80;27.67;;;12.80;99.90;;;;;;5004321;28;37499;-81
2022/10/13 06:12:56;;;;;;;45.47;25.27;;;12.80;99.90;;;;;;5004752;28;38621;-81
2022/10/13 06:15:22;;;;;;;48.38;29.52;;;12.90;99.90;;;;;;5023754;28;38615;-82
2022/10/13 06:17:48;;;;;;;49.55;28.08;;;12.90;99.90;;;;;;5018604;28;37891;-81
2022/10/13 06:20:15;;;;;;;43.88;29.25;;;12.90;99.90;;;;;;5028498;28;38589;-82
2022/10/13 06:22:41;;;;;;;64.15;33.67;;;12.90;99.90;;;;;;5010071;28;38364;-81
2022/10/13 06:25:08;;;;;;;55.20;30.50;;;13.00;99.90;;;;;;5003185;28;38774;-82
2022/10/13 06:27:34;;;;;;;45.65;30.45;;;13.00;99.90;;;;;;5028174;28;39051;-82
2022/10/13 06:30:00;;;;;;;55.60;32.35;;;13.00;99.90;;;;;;5018643;28;37727;-82
2022/10/13 06:32:31;;;;;;;43.30;29.50;;;13.00;99.90;;;;;;5009351;28;38628;-82
2022/10/13 06:35:01;;;;;;;35.38;24.55;;;12.90;99.90;;;;;;5019022;28;37925;-82
2022/10/13 06:37:27;;;;;;;44.65;26.70;;;13.00;99.90;;;;;;5134256;23;38094;-82
2022/10/13 06:39:53;;;;;;;43.00;25.33;;;13.00;99.90;;;;;;4988827;28;38972;-81
2022/10/13 06:42:19;;;;;;;48.03;27.50;;;13.00;99.90;;;;;;5009046;28;39853;-84
2022/10/13 06:44:45;;;;;;;40.78;24.42;;;13.00;99.90;;;;;;4996400;28;36768;-82
2022/10/13 06:47:11;;;;;;;49.38;28.58;;;12.90;99.90;;;;;;4997857;28;37769;-83
2022/10/13 06:49:38;;;;;;;38.78;22.95;;;13.00;99.90;;;;;;4995681;28;38590;-83
2022/10/13 06:52:04;;;;;;;51.30;29.67;;;13.00;99.90;;;;;;4990287;28;38699;-82
2022/10/13 06:54:30;;;;;;;52.65;27.55;;;13.00;99.90;;;;;;4993313;28;37298;-82
2022/10/13 06:56:57;;;;;;;44.63;22.48;;;13.00;99.90;;;;;;4997586;28;36495;-83
2022/10/13 06:59:25;;;;;;;42.33;24.00;;;13.00;99.90;;;;;;4996227;28;39952;-82
2022/10/13 07:01:57;;;;;;;29.15;20.85;;;13.00;99.90;;;;;;5001036;28;38296;-83
2022/10/13 07:04:24;;;;;;;;;;;13.00;99.90;;;;;;5011392;28;39599;-82
2022/10/13 07:06:51;;;;;;;34.78;22.02;;;13.00;99.90;;;;;;5014590;28;38237;-82
2022/10/13 07:09:19;;;;;;;43.53;22.88;;;13.00;99.90;;;;;;4991334;28;37445;-82
2022/10/13 07:11:46;;;;;;;32.20;19.30;;;13.00;99.90;;;;;;4987234;28;39305;-83
2022/10/13 07:14:13;;;;;;;40.40;22.70;;;13.00;99.90;;;;;;5000442;28;38413;-81
2022/10/13 07:16:42;;;;;;;29.30;19.17;;;13.00;99.90;;;;;;4991513;28;37722;-82
2022/10/13 07:21:44;;;;;;;33.00;19.83;;;13.10;99.90;;;;;;5006608;26;20037;-81
2022/10/13 07:24:19;;;;;;;30.08;18.73;;;13.10;99.90;;;;;;5011308;28;38682;-80
2022/10/13 07:26:45;;;;;;;33.08;21.00;;;13.10;99.90;;;;;;4991371;28;35965;-82
2022/10/13 07:29:11;;;;;;;24.48;18.20;;;13.10;99.90;;;;;;4992866;28;38587;-83
2022/10/13 07:31:37;;;;;;;33.50;17.27;;;13.10;99.90;;;;;;5008727;28;38570;-83
2022/10/13 07:34:16;;;;;;;33.22;18.52;;;13.10;99.90;;;;;;4997358;28;37214;-82
2022/10/13 07:36:42;;;;;;;31.17;18.05;;;13.20;99.90;;;;;;4994714;28;37414;-81
2022/10/13 07:39:08;;;;;;;24.15;14.90;;;13.10;99.90;;;;;;4991724;28;37900;-81
2022/10/13 07:41:36;;;;;;;24.02;16.98;;;13.20;99.90;;;;;;4994343;28;37062;-81
2022/10/13 07:44:03;;;;;;;22.55;13.70;;;13.10;99.90;;;;;;5010513;28;39435;-81
2022/10/13 07:46:31;;;;;;;23.23;15.05;;;13.20;99.90;;;;;;4991013;28;20074;-80
2022/10/13 07:48:57;;;;;;;21.83;14.35;;;13.20;99.90;;;;;;4992550;28;38952;-81
2022/10/13 07:51:23;;;;;;;23.95;14.30;;;13.30;99.90;;;;;;5003758;28;38554;-83
2022/10/13 07:53:49;;;;;;;26.30;16.88;;;13.30;99.90;;;;;;4993520;28;37819;-80
2022/10/13 07:56:16;;;;;;;23.65;13.88;;;13.40;99.90;;;;;;4993569;28;36234;-80
2022/10/13 07:58:44;;;;;;;21.70;13.95;;;13.30;99.90;;;;;;5007896;28;38886;-81
2022/10/13 08:01:12;;;;;;;25.67;16.15;;;13.30;99.90;;;;;;4994808;28;37084;-80
2022/10/13 08:03:42;;;;;;;30.60;20.40;;;13.30;99.90;;;;;;4992580;28;38088;-81
2022/10/13 08:06:09;;;;;;;30.60;18.73;;;13.30;99.90;;;;;;4991571;28;37507;-81
2022/10/13 08:08:36;;;;;;;33.78;21.13;;;13.30;99.90;;;;;;4989613;28;37544;-81
2022/10/13 08:11:05;;;;;;;31.35;19.67;;;13.30;99.90;;;;;;4998127;28;39262;-82
2022/10/13 08:13:32;;;;;;;32.33;22.08;;;13.20;99.90;;;;;;4985018;28;48205;-80
2022/10/13 08:16:02;;;;;;;28.85;18.48;;;13.20;99.90;;;;;;4986358;28;36708;-81
2022/10/13 08:18:29;;;;;;;29.27;19.45;;;13.30;99.90;;;;;;4985440;28;38702;-81
2022/10/13 08:21:00;;;;;;;24.48;15.75;;;13.30;99.90;;;;;;5011724;28;38968;-81
2022/10/13 08:23:26;;;;;;;29.80;18.10;;;13.20;99.90;;;;;;4992818;28;38236;-82
2022/10/13 08:25:57;;;;;;;27.35;16.98;;;13.20;99.90;;;;;;5000894;28;38136;-82
2022/10/13 08:28:30;;;;;;;25.38;16.35;;;13.20;99.90;;;;;;5003998;28;38590;-81
2022/10/13 08:30:59;;;;;;;24.55;17.60;;;13.20;99.90;;;;;;5004941;28;38396;-80
2022/10/13 08:33:25;;;;;;;26.40;17.27;;;13.20;99.90;;;;;;4982828;28;36784;-82
2022/10/13 08:35:52;;;;;;;32.28;17.95;;;13.30;99.90;;;;;;5013490;28;39774;-82
2022/10/13 08:38:24;;;;;;;27.90;17.40;;;13.40;99.90;;;;;;5012847;28;41614;-82
2022/10/13 08:40:52;;;;;;;21.13;16.65;;;13.40;99.90;;;;;;5002730;28;38549;-82
2022/10/13 08:43:21;;;;;;;20.98;15.50;;;13.40;99.90;;;;;;4981916;28;37266;-81
2022/10/13 08:45:50;;;;;;;25.73;15.55;;;13.50;99.90;;;;;;4982769;28;37901;-82
2022/10/13 08:48:26;;;;;;;27.15;15.50;;;13.40;99.90;;;;;;4996558;28;38450;-81
2022/10/13 08:50:59;;;;;;;22.02;14.23;;;13.50;99.90;;;;;;4996376;28;37218;-81
2022/10/13 08:53:40;;;;;;;24.58;16.25;;;13.50;99.90;;;;;;4999003;28;36992;-81
2022/10/13 08:56:19;;;;;;;23.10;15.00;;;13.60;99.90;;;;;;5015887;28;37727;-82
2022/10/13 08:58:46;;;;;;;20.48;15.23;;;13.70;99.90;;;;;;5000289;28;37915;-81
2022/10/13 09:01:18;;;;;;;26.30;15.40;;;13.60;99.90;;;;;;4996734;28;38596;-82
2022/10/13 09:03:55;;;;;;;21.40;14.10;;;13.60;99.90;;;;;;4996772;28;38175;-82
2022/10/13 09:06:27;;;;;;;24.75;14.43;;;13.50;99.90;;;;;;5000427;28;37809;-81
2022/10/13 09:09:02;;;;;;;25.98;14.55;;;13.60;99.90;;;;;;5016243;28;40443;-82
2022/10/13 09:11:32;;;;;;;22.10;14.38;;;13.60;99.90;;;;;;4998759;28;46557;-83
2022/10/13 09:14:05;;;;;;;28.50;15.13;;;13.60;99.90;;;;;;4999950;28;37881;-81
2022/10/13 09:16:40;;;;;;;17.52;13.48;;;13.60;99.90;;;;;;5015039;28;49273;-82
2022/10/13 09:19:24;;;;;;;23.80;13.90;;;13.70;99.90;;;;;;5016026;28;40246;-82
2022/10/13 09:21:56;;;;;;;27.70;13.68;;;13.70;99.90;;;;;;4993155;28;38349;-81
2022/10/13 09:24:25;;;;;;;21.70;13.85;;;13.70;99.90;;;;;;4992884;28;37847;-81
2022/10/13 09:27:11;;;;;;;23.13;13.60;;;13.70;99.90;;;;;;5010363;28;37855;-82
2022/10/13 09:29:37;;;;;;;27.20;13.52;;;13.80;99.90;;;;;;5007966;28;48228;-81
2022/10/13 09:32:20;;;;;;;21.02;12.75;;;13.90;99.90;;;;;;4992150;28;36969;-81
2022/10/13 09:34:47;;;;;;;24.42;14.50;;;13.90;99.90;;;;;;4992758;28;39387;-82
2022/10/13 09:37:24;;;;;;;27.08;12.65;;;13.90;99.90;;;;;;4991208;28;37709;-82
2022/10/13 09:40:18;;;;;;;21.48;12.20;;;14.00;99.90;;;;;;5009382;28;40232;-81
2022/10/13 09:42:51;;;;;;;24.50;12.35;;;14.20;99.90;;;;;;4980963;28;47058;-81
2022/10/13 09:45:22;;;;;;;20.70;12.38;;;14.20;99.90;;;;;;4986270;28;37532;-81
2022/10/13 09:47:54;;;;;;;22.00;11.70;;;14.20;99.90;;;;;;4984733;28;36676;-81
2022/10/13 09:50:26;;;;;;;22.48;13.30;;;14.20;99.90;;;;;;5005495;28;38696;-82
2022/10/13 09:53:08;;;;;;;22.10;12.77;;;14.20;99.90;;;;;;4990189;28;38049;-81
2022/10/13 09:55:35;;;;;;;22.45;12.50;;;14.30;99.90;;;;;;4989509;28;48023;-78
2022/10/13 09:58:11;;;;;;;18.42;11.00;;;14.30;99.90;;;;;;4967664;28;39055;-78
2022/10/13 10:00:41;;;;;;;22.63;11.73;;;14.30;99.90;;;;;;4975543;28;46781;-80
2022/10/13 10:03:09;;;;;;;27.50;12.73;;;14.40;99.90;;;;;;4982748;28;38901;-79
2022/10/13 10:06:00;;;;;;;21.83;12.57;;;14.40;99.90;;;;;;4991359;28;37454;-80
2022/10/13 10:08:58;;;;;;;19.80;11.52;;;14.40;99.90;;;;;;4978858;28;35870;-80
2022/10/13 10:11:29;;;;;;;28.80;14.45;;;14.50;99.90;;;;;;4986170;28;39018;-79
2022/10/13 10:13:57;;;;;;;25.48;12.10;;;14.40;99.90;;;;;;4974949;28;37385;-79
2022/10/13 10:16:40;;;;;;;19.45;11.68;;;14.50;99.90;;;;;;4976672;28;38465;-81
2022/10/13 10:19:42;;;;;;;15.93;11.48;;;14.40;99.90;;;;;;4977462;28;37730;-79
2022/10/13 10:22:36;;;;;;;25.50;12.45;;;14.40;99.90;;;;;;4900725;28;38123;-80
2022/10/13 10:25:19;;;;;;;17.73;11.18;;;14.50;99.90;;;;;;4970433;28;39044;-82
2022/10/13 10:28:04;;;;;;;18.90;11.50;;;14.60;99.90;;;;;;4987754;28;48457;-81
2022/10/13 10:30:35;;;;;;;19.60;11.95;;;14.80;99.90;;;;;;4974903;28;47148;-78
2022/10/13 10:33:18;;;;;;;24.45;13.23;;;14.80;99.90;;;;;;4974021;28;38087;-81
2022/10/13 10:35:54;;;;;;;21.58;12.75;;;14.80;99.90;;;;;;4974183;28;46794;-82
2022/10/13 10:38:39;;;;;;;24.67;12.75;;;14.80;99.90;;;;;;4967980;28;39750;-81
2022/10/13 10:41:24;;;;;;;23.65;12.52;;;14.70;99.90;;;;;;4978006;28;38122;-82
2022/10/13 10:43:57;;;;;;;23.42;12.93;;;14.70;99.90;;;;;;4978142;28;47824;-82
2022/10/13 10:46:27;;;;;;;23.23;13.57;;;14.70;99.90;;;;;;4999591;28;38023;-82
2022/10/13 10:49:00;;;;;;;26.50;12.57;;;14.80;99.90;;;;;;4998386;28;39670;-82
2022/10/13 10:51:34;;;;;;;26.95;13.57;;;14.70;99.90;;;;;;4977066;28;36160;-81
2022/10/13 10:54:29;;;;;;;30.05;14.18;;;14.70;99.90;;;;;;4978586;28;39605;-81
2022/10/13 10:57:02;;;;;;;24.17;14.05;;;14.70;99.90;;;;;;4980068;28;47152;-82
2022/10/13 10:59:47;;;;;;;28.45;12.75;;;14.70;99.90;;;;;;4994100;28;48726;-82
2022/10/13 11:02:46;;;;;;;22.88;13.35;;;14.70;99.90;;;;;;4979994;28;37981;-82
2022/10/13 11:05:13;;;;;;;32.53;14.48;;;14.80;99.90;;;;;;4997684;28;38451;-81
2022/10/13 11:07:43;;;;;;;30.00;12.52;;;14.90;99.90;;;;;;4983787;28;39271;-82
2022/10/13 11:10:12;;;;;;;21.67;13.55;;;15.00;99.90;;;;;;4984464;28;38006;-82
2022/10/13 11:12:51;;;;;;;21.20;13.88;;;15.10;99.90;;;;;;4999400;28;38970;-81
2022/10/13 11:15:41;;;;;;;29.15;14.38;;;15.00;99.90;;;;;;4982218;28;39058;-82
2022/10/13 11:18:45;;;;;;;25.13;14.85;;;15.00;99.90;;;;;;4979291;28;39915;-81
2022/10/13 11:21:11;;;;;;;24.00;13.05;;;15.00;99.90;;;;;;4975139;28;38208;-81
2022/10/13 11:23:45;;;;;;;23.17;12.25;;;15.10;99.90;;;;;;4992636;28;36971;-81
2022/10/13 11:26:39;;;;;;;22.48;12.88;;;15.10;99.90;;;;;;4975390;28;39939;-80
2022/10/13 11:29:16;;;;;;;18.40;12.02;;;15.10;99.90;;;;;;4987075;28;39348;-81
2022/10/13 11:31:49;;;;;;;22.63;14.23;;;15.20;99.90;;;;;;4983084;28;48572;-78
2022/10/13 11:34:27;;;;;;;26.38;13.85;;;15.10;99.90;;;;;;4961093;28;36738;-79
2022/10/13 11:37:00;;;;;;;21.63;13.70;;;15.00;99.90;;;;;;4965293;28;38556;-79
2022/10/13 11:39:36;;;;;;;22.52;13.38;;;14.90;99.90;;;;;;4981513;28;39951;-79
2022/10/13 11:42:20;;;;;;;22.52;14.07;;;14.90;99.90;;;;;;4970745;28;37618;-79
2022/10/13 11:45:02;;;;;;;24.83;15.05;;;14.90;99.90;;;;;;4983373;28;38123;-79
2022/10/13 11:47:59;;;;;;;21.63;15.07;;;14.80;99.90;;;;;;4987365;28;38813;-80
2022/10/13 11:50:39;;;;;;;34.58;15.73;;;14.80;99.90;;;;;;4980785;28;37337;-80
2022/10/13 11:53:11;;;;;;;22.60;15.00;;;14.80;99.90;;;;;;4983291;28;37435;-79
2022/10/13 11:55:56;;;;;;;27.95;15.18;;;14.70;99.90;;;;;;4990189;28;37539;-80
2022/10/13 11:58:31;;;;;;;25.42;16.50;;;14.60;99.90;;;;;;4964173;28;38174;-80
2022/10/13 12:00:59;;;;;;;25.70;14.88;;;14.60;99.90;;;;;;4965399;28;39307;-79
2022/10/13 12:03:31;;;;;;;23.42;15.20;;;14.60;99.90;;;;;;4962108;28;37261;-79
2022/10/13 12:06:06;;;;;;;27.33;15.55;;;14.40;99.90;;;;;;4981475;28;37181;-79
2022/10/13 12:08:34;;;;;;;32.47;17.30;;;14.40;99.90;;;;;;4963336;28;47302;-79
2022/10/13 12:11:06;;;;;;;24.92;15.98;;;14.30;99.90;;;;;;4963200;28;37114;-79
2022/10/13 12:13:34;;;;;;;31.55;18.60;;;14.30;99.90;;;;;;4981091;28;48677;-79
2022/10/13 12:16:06;;;;;;;32.22;18.30;;;14.30;99.90;;;;;;4966438;28;36790;-79
2022/10/13 12:18:37;;;;;;;32.25;17.38;;;14.30;99.90;;;;;;4965030;28;47020;-80
2022/10/13 12:21:13;;;;;;;30.55;17.63;;;14.30;99.90;;;;;;4969881;28;38341;-80
2022/10/13 12:23:39;;;;;;;25.90;17.83;;;14.30;99.90;;;;;;4985466;28;48937;-80
2022/10/13 12:26:06;;;;;;;27.05;17.65;;;14.20;99.90;;;;;;4971758;28;36532;-79
2022/10/13 12:28:55;;;;;;;34.42;19.83;;;14.30;99.90;;;;;;4984198;28;38359;-79
2022/10/13 12:31:37;;;;;;;30.55;20.15;;;14.20;99.90;;;;;;4983848;28;39736;-79
2022/10/13 12:34:15;;;;;;;29.13;19.10;;;14.20;99.90;;;;;;4964467;28;37298;-79
2022/10/13 12:36:44;;;;;;;28.35;18.90;;;14.20;99.90;;;;;;4962434;28;36579;-80
2022/10/13 12:39:14;;;;;;;34.45;19.55;;;14.30;99.90;;;;;;4961779;28;39496;-78
2022/10/13 12:41:43;;;;;;;26.58;18.48;;;14.20;99.90;;;;;;4983093;28;38563;-80
2022/10/13 12:44:17;;;;;;;27.63;19.60;;;14.30;99.90;;;;;;4963657;28;37530;-77
2022/10/13 12:46:52;;;;;;;26.00;18.00;;;14.30;99.90;;;;;;4983404;28;37506;-78
2022/10/13 12:49:33;;;;;;;24.45;18.33;;;14.30;99.90;;;;;;4967380;28;40187;-81
2022/10/13 12:52:08;;;;;;;27.92;17.58;;;14.30;99.90;;;;;;4984718;28;39262;-81
2022/10/13 12:54:37;;;;;;;26.35;18.20;;;14.40;99.90;;;;;;4962941;28;46999;-82
2022/10/13 12:57:17;;;;;;;28.48;18.77;;;14.40;99.90;;;;;;4987592;28;40485;-81
2022/10/13 12:59:43;;;;;;;30.25;19.75;;;14.50;99.90;;;;;;4971713;28;39257;-81
2022/10/13 13:02:26;;;;;;;25.75;18.80;;;14.40;99.90;;;;;;4974855;28;39036;-82
2022/10/13 13:04:52;;;;;;;;;;;14.50;99.90;;;;;;4993648;28;37409;-81
2022/10/13 13:07:28;;;;;;;20.67;17.38;;;14.40;99.90;;;;;;4977040;28;36698;-81
2022/10/13 13:10:12;;;;;;;23.23;17.92;;;14.60;99.90;;;;;;4989266;28;39028;-82
2022/10/13 13:12:38;;;;;;;21.30;16.63;;;14.70;99.90;;;;;;4975919;28;46888;-82
2022/10/13 13:15:23;;;;;;;22.83;16.45;;;14.70;99.90;;;;;;4999816;28;39220;-81
2022/10/13 13:17:54;;;;;;;28.30;16.55;;;14.80;99.90;;;;;;4976933;28;46965;-81
2022/10/13 13:20:30;;;;;;;22.90;16.88;;;14.70;99.90;;;;;;4971365;28;38138;-81
2022/10/13 13:22:59;;;;;;;20.20;15.35;;;14.80;99.90;;;;;;4996431;28;40522;-82
2022/10/13 13:25:26;;;;;;;18.17;14.35;;;14.90;99.90;;;;;;5002290;28;38692;-81
2022/10/13 13:27:52;;;;;;;15.80;13.45;;;15.10;99.90;;;;;;4982426;28;37300;-81
2022/10/13 13:30:21;;;;;;;15.48;12.38;;;15.10;99.90;;;;;;4995876;28;39010;-82
2022/10/13 13:32:47;;;;;;;16.38;12.10;;;15.00;99.90;;;;;;4984876;28;37524;-82
2022/10/13 13:35:13;;;;;;;13.05;11.60;;;15.00;99.90;;;;;;4983437;28;37843;-79
2022/10/13 13:37:44;;;;;;;15.65;9.80;;;15.00;99.90;;;;;;5002485;28;36546;-81
2022/10/13 13:40:15;;;;;;;15.73;10.45;;;15.00;99.90;;;;;;4984450;28;39667;-79
2022/10/13 13:42:41;;;;;;;14.15;10.05;;;15.00;99.90;;;;;;5006753;28;37983;-80
2022/10/13 13:45:12;;;;;;;13.18;9.05;;;15.10;99.90;;;;;;4995948;28;37731;-79
2022/10/13 13:47:38;;;;;;;9.90;8.75;;;15.10;99.90;;;;;;4987664;28;38343;-80
2022/10/13 13:50:21;;;;;;;9.30;7.63;;;15.10;99.90;;;;;;5009473;28;41596;-79
2022/10/13 13:52:47;;;;;;;12.20;9.55;;;15.20;99.90;;;;;;4983208;28;48602;-79
2022/10/13 13:55:14;;;;;;;10.63;8.35;;;15.30;99.90;;;;;;4973014;28;38166;-80
2022/10/13 13:57:42;;;;;;;11.75;8.27;;;15.30;99.90;;;;;;4978360;28;37960;-79
2022/10/13 14:00:11;;;;;;;9.60;7.15;;;15.40;99.90;;;;;;4964945;28;38922;-80
2022/10/13 14:02:38;;;;;;;10.18;6.63;;;15.40;99.90;;;;;;4967823;28;47370;-80
2022/10/13 14:05:04;;;;;;;9.88;6.68;;;15.30;99.90;;;;;;4992514;28;38227;-79
2022/10/13 14:07:30;;;;;;;10.00;7.30;;;15.30;99.90;;;;;;4972364;28;48377;-79
2022/10/13 14:09:57;;;;;;;7.07;6.15;;;15.30;99.90;;;;;;4974413;28;39449;-80
2022/10/13 14:12:24;;;;;;;5.53;4.75;;;15.10;99.90;;;;;;4990313;28;39582;-79
2022/10/13 14:14:50;;;;;;;5.47;4.28;;;15.00;99.90;;;;;;4991155;28;39164;-79
2022/10/13 14:17:16;;;;;;;4.45;2.50;;;15.00;99.90;;;;;;4984115;28;37558;-81
2022/10/13 14:19:42;;;;;;;4.30;2.25;;;14.80;99.90;;;;;;4964929;28;37932;-82
2022/10/13 14:22:08;;;;;;;5.15;1.63;;;14.70;99.90;;;;;;5004371;28;37066;-83
2022/10/13 14:24:34;;;;;;;2.45;2.13;;;14.60;99.90;;;;;;4999859;28;37826;-82
2022/10/13 14:27:03;;;;;;;2.40;1.70;;;14.60;99.90;;;;;;4982746;28;38011;-82
2022/10/13 14:29:31;;;;;;;2.33;2.10;;;14.40;99.90;;;;;;4989430;28;48270;-82
2022/10/13 14:31:57;;;;;;;2.90;2.60;;;14.40;99.90;;;;;;4992822;28;38873;-83
2022/10/13 14:34:23;;;;;;;2.25;1.98;;;14.30;99.90;;;;;;4978042;28;36495;-82
2022/10/13 14:36:49;;;;;;;3.92;1.95;;;14.40;99.90;;;;;;4975964;28;37528;-83
2022/10/13 14:39:15;;;;;;;2.30;2.10;;;14.40;99.90;;;;;;4984879;28;38509;-79
2022/10/13 14:41:41;;;;;;;3.67;1.83;;;14.50;99.90;;;;;;4981856;28;37536;-79
2022/10/13 14:44:11;;;;;;;2.28;2.08;;;14.40;99.90;;;;;;4998324;28;38449;-82
2022/10/13 14:46:37;;;;;;;1.63;1.52;;;14.40;99.90;;;;;;4981940;28;37437;-80
2022/10/13 14:49:03;;;;;;;3.85;1.35;;;14.40;99.90;;;;;;5000853;28;39227;-82
2022/10/13 14:51:31;;;;;;;1.75;1.20;;;14.30;99.90;;;;;;4979944;28;39044;-80
2022/10/13 14:53:57;;;;;;;1.05;0.95;;;14.20;99.90;;;;;;4993860;28;38006;-81
2022/10/13 14:56:25;;;;;;;1.25;1.15;;;14.10;99.90;;;;;;4977577;28;38142;-80
2022/10/13 14:58:58;;;;;;;1.75;1.20;;;14.00;99.90;;;;;;4983722;28;39847;-81
2022/10/13 15:01:24;;;;;;;2.55;0.90;;;13.90;99.90;;;;;;5003536;28;40013;-80
2022/10/13 15:03:50;;;;;;;4.18;1.13;;;13.70;99.90;;;;;;4987083;28;36992;-81
2022/10/13 15:06:20;;;;;;;1.27;1.10;;;13.70;99.90;;;;;;5001190;28;38657;-81
2022/10/13 15:08:48;;;;;;;1.15;0.90;;;13.60;99.90;;;;;;4984188;28;39115;-80
2022/10/13 15:11:17;;;;;;;1.83;0.75;;;13.60;99.90;;;;;;5004983;28;39886;-81
2022/10/13 15:13:45;;;;;;;1.58;0.98;;;13.60;99.90;;;;;;5000045;28;37863;-80
2022/10/13 15:16:28;;;;;;;3.38;0.95;;;13.60;99.90;;;;;;4985344;28;36482;-80
2022/10/13 15:18:56;;;;;;;3.38;1.35;;;13.50;99.90;;;;;;5004291;28;39430;-81
2022/10/13 15:21:24;;;;;;;3.17;1.30;;;13.50;99.90;;;;;;4986349;28;38865;-81
2022/10/13 15:23:51;;;;;;;2.38;1.50;;;13.50;99.90;;;;;;4987701;28;38536;-81
2022/10/13 15:26:18;;;;;;;4.22;2.47;;;13.50;99.90;;;;;;5002994;28;37565;-80
2022/10/13 15:28:51;;;;;;;2.38;1.88;;;13.50;99.90;;;;;;5002153;28;38159;-80
2022/10/13 15:31:19;;;;;;;3.58;1.42;;;13.60;99.90;;;;;;4997122;28;37680;-81
2022/10/13 15:33:48;;;;;;;2.05;1.40;;;13.70;99.90;;;;;;5006888;28;38942;-80
2022/10/13 15:36:15;;;;;;;1.45;1.35;;;13.80;99.90;;;;;;4991249;28;36232;-79
2022/10/13 15:38:41;;;;;;;0.65;0.60;;;13.90;99.90;;;;;;4985482;28;38216;-81
2022/10/13 15:41:10;;;;;;;1.65;1.20;;;13.90;99.90;;;;;;4986643;28;37468;-81
2022/10/13 15:43:37;;;;;;;2.10;0.90;;;13.90;99.90;;;;;;4987287;28;37329;-82
2022/10/13 15:46:20;;;;;;;1.30;1.10;;;14.00;99.90;;;;;;5003752;28;37403;-83
2022/10/13 15:48:54;;;;;;;2.13;1.05;;;13.90;99.90;;;;;;4977571;28;48533;-84
2022/10/13 15:51:23;;;;;;;1.25;1.05;;;14.00;99.90;;;;;;4999704;28;39307;-80
2022/10/13 15:53:51;;;;;;;0.95;0.90;;;14.00;99.90;;;;;;4973151;28;37962;-81
2022/10/13 15:56:21;;;;;;;1.73;1.10;;;14.00;99.90;;;;;;4961204;28;37749;-82
2022/10/13 15:58:48;;;;;;;1.10;1.00;;;14.00;99.90;;;;;;4990572;28;38082;-81
2022/10/13 16:01:16;;;;;;;1.08;0.93;;;13.90;99.90;;;;;;5006726;28;38748;-83
2022/10/13 16:03:44;;;;;;;2.33;1.20;;;13.90;99.90;;;;;;4989256;28;38742;-83
2022/10/13 16:06:12;;;;;;;1.70;1.23;;;13.90;99.90;;;;;;4978494;28;39461;-83
2022/10/13 16:08:43;;;;;;;1.08;0.98;;;13.80;99.90;;;;;;4981675;28;38220;-82
2022/10/13 16:11:12;;;;;;;1.17;0.80;;;13.80;99.90;;;;;;5003422;28;38855;-83
2022/10/13 16:13:50;;;;;;;1.95;1.20;;;13.70;99.90;;;;;;4984627;28;38630;-82
2022/10/13 16:16:17;;;;;;;1.15;1.05;;;13.60;99.90;;;;;;4974380;28;39410;-82
2022/10/13 16:18:50;;;;;;;2.95;1.00;;;13.60;99.90;;;;;;5005785;28;38764;-82
2022/10/13 16:21:19;;;;;;;;;;;13.50;99.90;;;;;;4988126;28;38543;-83
2022/10/13 16:23:47;;;;;;;1.63;1.23;;;13.50;99.90;;;;;;4989730;28;37806;-82
2022/10/13 16:26:16;;;;;;;1.40;1.27;;;13.40;99.90;;;;;;4989671;28;37945;-82
2022/10/13 16:28:43;;;;;;;3.25;1.17;;;13.40;99.90;;;;;;4987883;28;39760;-82
2022/10/13 16:31:13;;;;;;;1.15;0.93;;;13.30;99.90;;;;;;4972108;28;37642;-83
2022/10/13 16:33:45;;;;;;;1.88;1.30;;;13.20;99.90;;;;;;4990826;28;39494;-81
2022/10/13 16:36:18;;;;;;;1.40;1.30;;;13.10;99.90;;;;;;4976265;28;36502;-83